ADDS METAR Data INFO
IDs: Format: Raw Decoded Include TAF

Data at: 0147 UTC 17 Oct 2017

KOXI 170135Z AUTO 19003KT 10SM CLR 06/05 A3025 RMK AO1
KOXI 170115Z AUTO 00000KT 10SM CLR 07/05 A3024 RMK AO1
KOXI 170055Z AUTO 18003KT 10SM CLR 07/05 A3024 RMK AO1
KOXI 170035Z AUTO 00000KT 10SM CLR 07/05 A3024 RMK AO1
KOXI 170015Z AUTO 17003KT 10SM CLR 08/05 A3024 RMK AO1
KOXI 162355Z AUTO 17003KT 10SM CLR 10/04 A3024 RMK AO1
KOXI 162335Z AUTO 00000KT 10SM CLR 11/04 A3024 RMK AO1
KOXI 162315Z AUTO 00000KT 10SM CLR 12/03 A3025 RMK AO1
KOXI 162255Z AUTO 22003KT 10SM CLR 13/03 A3024 RMK AO1
KOXI 162235Z AUTO 24005KT 10SM CLR 15/02 A3025 RMK AO1
KOXI 162215Z AUTO 25004KT 10SM SCT060 16/02 A3025 RMK AO1
KOXI 162155Z AUTO 26007KT 10SM SCT060 16/02 A3025 RMK AO1
KOXI 162135Z AUTO 25007KT 10SM SCT060 16/02 A3025 RMK AO1
KOXI 162115Z AUTO 29007KT 10SM BKN060 16/02 A3025 RMK AO1
KOXI 162055Z AUTO 28006KT 10SM SCT060 16/02 A3026 RMK AO1
KOXI 162035Z AUTO 27005KT 10SM SCT055 16/02 A3026 RMK AO1
KOXI 162015Z AUTO 26009KT 10SM BKN055 16/02 A3027 RMK AO1
KOXI 161955Z AUTO 26008G15KT 10SM SCT055 16/02 A3027 RMK AO1
KOXI 161935Z AUTO 24010G14KT 10SM SCT055 16/02 A3027 RMK AO1
KOXI 161915Z AUTO 28007G15KT 10SM SCT055 15/02 A3028 RMK AO1
KOXI 161855Z AUTO 27007KT 240V310 10SM CLR 16/02 A3029 RMK AO1
KOXI 161835Z AUTO 29007KT 10SM CLR 15/03 A3030 RMK AO1
KOXI 161815Z AUTO 29004KT 10SM CLR 15/03 A3030 RMK AO1
KOXI 161755Z AUTO 27008KT 10SM CLR 15/03 A3031 RMK AO1
KOXI 161735Z AUTO 25007KT 10SM CLR 14/03 A3032 RMK AO1
KOXI 161715Z AUTO 26007KT 10SM CLR 13/04 A3033 RMK AO1
KOXI 161655Z AUTO 25006KT 10SM CLR 13/04 A3033 RMK AO1
KOXI 161635Z AUTO 26006G14KT 10SM CLR 13/03 A3033 RMK AO1
KOXI 161615Z AUTO 29007KT 10SM CLR 13/04 A3033 RMK AO1
KOXI 161555Z AUTO 28008KT 10SM CLR 12/04 A3033 RMK AO1
KOXI 161535Z AUTO 28008KT 10SM CLR 12/05 A3033 RMK AO1
KOXI 161515Z AUTO 28007KT 10SM CLR 11/05 A3033 RMK AO1
KOXI 161455Z AUTO 27008KT 10SM CLR 11/06 A3033 RMK AO1
KOXI 161435Z AUTO 28006KT 10SM CLR 10/06 A3033 RMK AO1
KOXI 161415Z AUTO 28004KT 10SM CLR 08/06 A3033 RMK AO1
KOXI 161355Z AUTO 28006KT 10SM CLR 08/06 A3033 RMK AO1
KOXI 161335Z AUTO 28004KT 10SM CLR 07/05 A3032 RMK AO1
KOXI 161315Z AUTO 27006KT 10SM CLR 06/05 A3032 RMK AO1
KOXI 161255Z AUTO 26005KT 10SM CLR 06/05 A3031 RMK AO1
KOXI 161235Z AUTO 27004KT 10SM CLR 05/04 A3031 RMK AO1
KOXI 161215Z AUTO 27005KT 10SM CLR 05/04 A3030 RMK AO1
KOXI 161155Z AUTO 27005KT 10SM CLR 05/04 A3030 RMK AO1
KOXI 161135Z AUTO 27005KT 10SM CLR 05/04 A3029 RMK AO1
KOXI 161115Z AUTO 26004KT 10SM CLR 05/04 A3029 RMK AO1
KOXI 161055Z AUTO 26005KT 10SM CLR 05/04 A3028 RMK AO1
KOXI 161035Z AUTO 26005KT 10SM CLR 05/04 A3028 RMK AO1
KOXI 161015Z AUTO 25004KT 10SM CLR 05/04 A3027 RMK AO1
KOXI 160955Z AUTO 25005KT 10SM CLR 05/05 A3027 RMK AO1
KOXI 160935Z AUTO 24004KT 10SM CLR 05/05 A3026 RMK AO1
KOXI 160915Z AUTO 26004KT 10SM CLR 06/05 A3026 RMK AO1
KOXI 160855Z AUTO 26004KT 10SM CLR 06/05 A3025 RMK AO1
KOXI 160835Z AUTO 27004KT 10SM CLR 06/05 A3025 RMK AO1
KOXI 160815Z AUTO 00000KT 10SM SCT060 07/06 A3025 RMK AO1
KOXI 160755Z AUTO 28004KT 10SM OVC060 08/06 A3025 RMK AO1
KOXI 160735Z AUTO 28005KT 10SM OVC060 08/06 A3025 RMK AO1
KOXI 160715Z AUTO 29003KT 10SM OVC060 08/06 A3025 RMK AO1
KOXI 160655Z AUTO 29003KT 10SM OVC060 08/06 A3025 RMK AO1
KOXI 160635Z AUTO 00000KT 10SM OVC060 08/06 A3025 RMK AO1
KOXI 160615Z AUTO 29005KT 10SM OVC060 08/07 A3024 RMK AO1
KOXI 160555Z AUTO 00000KT 10SM OVC060 08/07 A3024 RMK AO1
KOXI 160535Z AUTO 00000KT 10SM OVC060 08/08 A3024 RMK AO1
KOXI 160515Z AUTO 00000KT 10SM OVC060 08/08 A3023 RMK AO1
KOXI 160455Z AUTO 00000KT 10SM SCT030 OVC060 08/08 A3023 RMK AO1
KOXI 160435Z AUTO 00000KT 10SM SCT028 BKN050 OVC055 09/08 A3023 RMK AO1
KOXI 160415Z AUTO 00000KT 10SM BKN026 BKN032 OVC043 08/08 A3023 RMK AO1
KOXI 160355Z AUTO 00000KT 10SM SCT025 BKN038 OVC045 08/08 A3023 RMK AO1
KOXI 160335Z AUTO 35004KT 7SM BKN027 BKN033 OVC042 08/07 A3023 RMK AO1
KOXI 160315Z AUTO 33009KT 5SM BKN026 OVC032 08/08 A3023 RMK AO1
KOXI 160255Z AUTO 31005KT 7SM BKN030 BKN036 OVC042 09/07 A3022 RMK AO1
KOXI 160235Z AUTO 33008KT 7SM BKN032 OVC043 09/08 A3022 RMK AO1
KOXI 160215Z AUTO 31007KT 7SM OVC046 10/08 A3021 RMK AO1
KOXI 160155Z AUTO 28007KT 10SM OVC048 10/07 A3020 RMK AO1
KOXI 160135Z AUTO 30008KT 7SM SCT037 BKN048 OVC050 10/07 A3020 RMK AO1
KOXI 160120Z AUTO 29006KT 10SM OVC050 11/07 A3019 RMK AO1
KOXI 160055Z AUTO 29006KT 10SM OVC050 10/07 A3018 RMK AO1
KOXI 160035Z AUTO 30005KT 10SM OVC050 10/07 A3017 RMK AO1
KOXI 160015Z AUTO 30005KT 10SM OVC050 10/07 A3016 RMK AO1
KOXI 152355Z AUTO 31005KT 10SM OVC050 10/07 A3016 RMK AO1
KOXI 152335Z AUTO 31005KT 10SM OVC050 10/08 A3015 RMK AO1
KOXI 152315Z AUTO 31005KT 10SM OVC048 10/08 A3014 RMK AO1
KOXI 152255Z AUTO 00000KT 10SM SCT040 OVC050 10/09 A3013 RMK AO1
KOXI 152235Z AUTO 29005KT 10SM BKN043 OVC050 10/09 A3013 RMK AO1
KOXI 152215Z AUTO 29005KT 10SM SCT015 BKN043 OVC050 10/09 A3012 RMK AO1
KOXI 152155Z AUTO 31008G14KT 4SM SCT011 BKN021 OVC039 10/09 A3012 RMK AO1
KOXI 152135Z AUTO 31009KT 10SM SCT014 BKN027 OVC055 11/10 A3010 RMK AO1
KOXI 152115Z AUTO 31009G14KT 2 1/2SM SCT010 BKN015 OVC025 10/08 A3010 RMK AO1
KOXI 152055Z AUTO 31012G23KT 4SM SCT020 OVC026 11/07 A3009 RMK AO1
KOXI 152035Z AUTO 30010G18KT 10SM BKN026 BKN031 OVC044 12/07 A3008 RMK AO1
KOXI 152015Z AUTO 31013G19KT 10SM SCT027 BKN038 OVC048 12/07 A3006 RMK AO1
KOXI 151955Z AUTO 31015G20KT 10SM BKN027 OVC034 12/07 A3005 RMK AO1
KOXI 151935Z AUTO 30011G20KT 10SM BKN032 OVC038 12/07 A3004 RMK AO1
KOXI 151915Z AUTO 30011G20KT 10SM BKN030 OVC036 12/06 A3003 RMK AO1
KOXI 151855Z AUTO 30013G27KT 10SM OVC034 12/06 A3003 RMK AO1
KOXI 151835Z AUTO 30014G21KT 10SM BKN030 OVC036 12/06 A3002 RMK AO1
KOXI 151815Z AUTO 30014G23KT 10SM BKN026 OVC036 12/06 A3001 RMK AO1
KOXI 151755Z AUTO 30016G24KT 10SM BKN028 OVC035 12/07 A3000 RMK AO1
KOXI 151735Z AUTO 30013G22KT 10SM SCT022 OVC033 12/07 A2999 RMK AO1
KOXI 151715Z AUTO 28012G18KT 10SM BKN024 OVC030 12/08 A2998 RMK AO1
KOXI 151655Z AUTO 29010G18KT 10SM SCT019 OVC027 12/08 A2997 RMK AO1
KOXI 151635Z AUTO 28014G19KT 10SM OVC021 12/09 A2995 RMK AO1
KOXI 151615Z AUTO 28015G20KT 10SM BKN023 OVC028 13/10 A2994 RMK AO1
KOXI 151555Z AUTO 28014G22KT 10SM OVC024 13/10 A2993 RMK AO1
KOXI 151535Z AUTO 28011G23KT 10SM OVC022 13/10 A2992 RMK AO1
KOXI 151515Z AUTO 28014G27KT 10SM SCT010 BKN014 OVC020 13/11 A2989 RMK AO1
KOXI 151455Z AUTO 27013G23KT 10SM BKN010 OVC017 13/12 A2987 RMK AO1
KOXI 151435Z AUTO 26014G19KT 10SM BKN010 BKN019 OVC034 14/13 A2985 RMK AO1
KOXI 151415Z AUTO 27012G18KT 3SM SCT010 BKN025 OVC038 15/13 A2984 RMK AO1
KOXI 151355Z AUTO 27017G27KT 10SM SCT010 SCT028 OVC039 15/13 A2984 RMK AO1